createdAt,value
2015-07-28T00:00:07.124Z,3.21
2015-07-28T00:00:19.453Z,3.14
2015-07-28T00:00:31.797Z,3.16
2015-07-28T00:00:44.140Z,3.17
2015-07-28T00:00:56.484Z,3.13
2015-07-28T00:01:08.812Z,3.16
2015-07-28T00:01:21.142Z,3.09
2015-07-28T00:01:33.486Z,3.09
2015-07-28T00:01:45.830Z,3.02
2015-07-28T00:01:58.158Z,3.17
2015-07-28T00:02:10.502Z,3.06
2015-07-28T00:02:22.847Z,3.13
2015-07-28T00:02:35.176Z,3.09
2015-07-28T00:02:47.519Z,3.17
2015-07-28T00:02:59.863Z,3.06
2015-07-28T00:03:12.207Z,3.16
2015-07-28T00:03:24.568Z,3.05
2015-07-28T00:03:36.943Z,3.09
2015-07-28T00:03:49.303Z,3.13
2015-07-28T00:04:01.678Z,3.05
2015-07-28T00:04:14.053Z,3.14
2015-07-28T00:04:26.414Z,3.16
2015-07-28T00:04:38.789Z,3.19
2015-07-28T00:04:51.117Z,3.01
2015-07-28T00:05:03.461Z,3.16
2015-07-28T00:05:15.805Z,3.13
2015-07-28T00:05:28.135Z,3.14
2015-07-28T00:05:40.478Z,3.05
2015-07-28T00:05:52.822Z,3.06
2015-07-28T00:06:05.166Z,3.14
2015-07-28T00:06:17.510Z,3.14
2015-07-28T00:06:29.137Z,3.11
2015-07-28T00:06:41.480Z,3.13
2015-07-28T00:06:53.824Z,3.11
2015-07-28T00:07:06.168Z,3.14
2015-07-28T00:07:18.496Z,3.05
2015-07-28T00:07:30.842Z,3.11
2015-07-28T00:07:43.170Z,3.13
2015-07-28T00:07:55.514Z,3.05
2015-07-28T00:08:07.842Z,3.06
2015-07-28T00:08:20.186Z,3.2
2015-07-28T00:08:32.516Z,3.02
2015-07-28T00:08:44.875Z,3.03
2015-07-28T00:08:57.234Z,3.14
2015-07-28T00:09:09.594Z,3.03
2015-07-28T00:09:21.969Z,3.08
2015-07-28T00:09:34.330Z,3.02
2015-07-28T00:09:46.705Z,3.16
2015-07-28T00:09:59.065Z,3.09
2015-07-28T00:10:11.455Z,3.11
2015-07-28T00:10:23.799Z,3.03
2015-07-28T00:10:36.129Z,3.14
2015-07-28T00:10:48.473Z,3.05
2015-07-28T00:11:00.801Z,3.13
2015-07-28T00:11:12.988Z,3.13
2015-07-28T00:11:25.332Z,3.06
2015-07-28T00:11:37.662Z,3.02
2015-07-28T00:11:50.006Z,3.05
2015-07-28T00:12:02.334Z,3.09
2015-07-28T00:12:14.694Z,3.05
2015-07-28T00:12:27.022Z,3.08
2015-07-28T00:12:39.367Z,3.05
2015-07-28T00:12:51.696Z,3.05
2015-07-28T00:13:04.024Z,3.19
2015-07-28T00:13:16.367Z,3.03
2015-07-28T00:13:28.711Z,3.05
2015-07-28T00:13:41.041Z,3.09
2015-07-28T00:13:53.385Z,3.03
2015-07-28T00:14:05.729Z,3.08
2015-07-28T00:14:18.088Z,3.05
2015-07-28T00:14:29.744Z,3.09
2015-07-28T00:14:42.105Z,3.09
2015-07-28T00:14:54.480Z,3.03
2015-07-28T00:15:06.152Z,3.05
2015-07-28T00:15:18.511Z,3.06
2015-07-28T00:15:30.870Z,3.08
2015-07-28T00:15:43.232Z,3.03
2015-07-28T00:15:55.607Z,3.02
2015-07-28T00:16:07.935Z,3.14
2015-07-28T00:16:20.279Z,3.01
2015-07-28T00:16:31.904Z,3.01
2015-07-28T00:16:44.250Z,3.05
2015-07-28T00:16:56.579Z,3.05
2015-07-28T00:17:08.922Z,3.02
2015-07-28T00:17:21.266Z,3.11
2015-07-28T00:17:33.610Z,3.01
2015-07-28T00:17:45.956Z,3.11
2015-07-28T00:17:58.299Z,3.08
2015-07-28T00:18:10.643Z,3.06
2015-07-28T00:18:22.971Z,3.05
2015-07-28T00:18:35.331Z,3.06
2015-07-28T00:18:47.661Z,3.05
2015-07-28T00:19:00.004Z,3.08
2015-07-28T00:19:12.348Z,3.03
2015-07-28T00:19:24.676Z,3.05
2015-07-28T00:19:37.020Z,3.05
2015-07-28T00:19:49.365Z,3.05
2015-07-28T00:20:01.709Z,3.01
2015-07-28T00:20:14.068Z,3.02
2015-07-28T00:20:26.459Z,3.01
2015-07-28T00:20:38.818Z,3.06
2015-07-28T00:20:51.180Z,3.11
2015-07-28T00:21:03.555Z,2.95
2015-07-28T00:21:15.930Z,3.06
2015-07-28T00:21:28.274Z,2.91
2015-07-28T00:21:40.620Z,3.11
2015-07-28T00:21:52.964Z,2.98
2015-07-28T00:22:05.292Z,3.05
2015-07-28T00:22:17.635Z,2.96
2015-07-28T00:22:29.979Z,3.02
2015-07-28T00:22:42.308Z,3.06
2015-07-28T00:22:54.636Z,3.08
2015-07-28T00:23:06.980Z,3.06
2015-07-28T00:23:19.324Z,2.99
2015-07-28T00:23:31.668Z,3.03
2015-07-28T00:23:43.999Z,3.02
2015-07-28T00:23:56.343Z,3.05
2015-07-28T00:24:08.671Z,2.98
2015-07-28T00:24:21.014Z,3.06
2015-07-28T00:24:33.343Z,3.03
2015-07-28T00:24:45.672Z,3.08
2015-07-28T00:24:58.000Z,3.03
2015-07-28T00:25:10.344Z,3.03
2015-07-28T00:25:22.687Z,2.95
2015-07-28T00:25:35.031Z,2.98
2015-07-28T00:25:47.393Z,3.02
2015-07-28T00:25:59.768Z,3.05
2015-07-28T00:26:12.128Z,3.03
2015-07-28T00:26:24.503Z,2.95
2015-07-28T00:26:36.862Z,2.99
2015-07-28T00:26:49.239Z,2.99
2015-07-28T00:27:01.599Z,3.03
2015-07-28T00:27:13.958Z,3.02
2015-07-28T00:27:26.302Z,2.96
2015-07-28T00:27:38.630Z,3.01
2015-07-28T00:27:50.959Z,3.03
2015-07-28T00:28:03.303Z,3.05
2015-07-28T00:28:15.646Z,3.05
2015-07-28T00:28:27.990Z,2.95
2015-07-28T00:28:40.318Z,2.96
2015-07-28T00:28:52.665Z,2.93
2015-07-28T00:29:04.993Z,3.03
2015-07-28T00:29:17.321Z,2.96
2015-07-28T00:29:29.649Z,2.99
2015-07-28T00:29:41.993Z,2.9
2015-07-28T00:29:54.339Z,3.02
2015-07-28T00:30:06.683Z,3.02
2015-07-28T00:30:19.011Z,3.02
2015-07-28T00:30:31.355Z,2.96
2015-07-28T00:30:43.683Z,2.96
2015-07-28T00:30:56.028Z,2.96
2015-07-28T00:31:08.388Z,2.93
2015-07-28T00:31:20.732Z,3.02
2015-07-28T00:31:33.091Z,2.95
2015-07-28T00:31:45.482Z,3.03
2015-07-28T00:31:57.842Z,2.95
2015-07-28T00:32:10.217Z,2.93
2015-07-28T00:32:22.576Z,2.93
2015-07-28T00:32:34.967Z,2.99
2015-07-28T00:32:47.311Z,2.96
2015-07-28T00:32:59.656Z,2.98
2015-07-28T00:33:12.000Z,3.05
2015-07-28T00:33:24.328Z,2.96
2015-07-28T00:33:36.656Z,3.01
2015-07-28T00:33:49.000Z,2.98
2015-07-28T00:34:00.627Z,3.01
2015-07-28T00:34:12.971Z,3.03
2015-07-28T00:34:25.299Z,3.02
2015-07-28T00:34:37.643Z,2.93
2015-07-28T00:34:49.987Z,3.05
2015-07-28T00:35:02.348Z,2.95
2015-07-28T00:35:14.676Z,2.96
2015-07-28T00:35:26.317Z,2.9
2015-07-28T00:35:38.645Z,2.96
2015-07-28T00:35:50.973Z,3.01
2015-07-28T00:36:03.319Z,2.95
2015-07-28T00:36:15.928Z,2.91
2015-07-28T00:36:28.287Z,3.05
2015-07-28T00:36:40.631Z,2.96
2015-07-28T00:36:52.975Z,2.96
2015-07-28T00:37:05.336Z,2.93
2015-07-28T00:37:17.711Z,2.93
2015-07-28T00:37:30.086Z,3.05
2015-07-28T00:37:41.743Z,3.03
2015-07-28T00:37:54.102Z,3.02
2015-07-28T00:38:05.744Z,2.96
2015-07-28T00:38:18.134Z,2.93
2015-07-28T00:38:30.462Z,3.03
2015-07-28T00:38:42.790Z,3.01
2015-07-28T00:38:55.134Z,3.02
2015-07-28T00:39:07.481Z,3.01
2015-07-28T00:39:19.825Z,3.01
2015-07-28T00:39:32.168Z,2.99
2015-07-28T00:39:44.497Z,2.95
2015-07-28T00:39:56.840Z,2.98
2015-07-28T00:40:09.169Z,3.06
2015-07-28T00:40:21.529Z,3.05
2015-07-28T00:40:33.857Z,3.05
2015-07-28T00:40:46.201Z,2.95
2015-07-28T00:40:58.529Z,3.06
2015-07-28T00:41:10.875Z,3.03
2015-07-28T00:41:23.218Z,3.03
2015-07-28T00:41:35.546Z,3.02
2015-07-28T00:41:47.875Z,2.98
2015-07-28T00:41:59.515Z,2.93
2015-07-28T00:42:11.862Z,3.02
2015-07-28T00:42:24.206Z,3.05
2015-07-28T00:42:36.565Z,2.98
2015-07-28T00:42:48.924Z,2.93
2015-07-28T00:43:01.284Z,2.98
2015-07-28T00:43:13.645Z,2.93
2015-07-28T00:43:26.005Z,2.96
2015-07-28T00:43:38.395Z,2.96
2015-07-28T00:43:50.755Z,2.93
2015-07-28T00:44:03.130Z,3.05
2015-07-28T00:44:15.459Z,2.93
2015-07-28T00:44:27.787Z,3.03
2015-07-28T00:44:40.131Z,2.93
2015-07-28T00:44:52.459Z,3.05
2015-07-28T00:45:04.802Z,2.95
2015-07-28T00:45:17.148Z,2.99
2015-07-28T00:45:29.476Z,2.98
2015-07-28T00:45:41.820Z,2.96
2015-07-28T00:45:54.008Z,2.95
2015-07-28T00:46:05.617Z,2.96
2015-07-28T00:46:17.979Z,2.9
2015-07-28T00:46:30.323Z,2.95
2015-07-28T00:46:42.651Z,2.98
2015-07-28T00:46:55.011Z,2.96
2015-07-28T00:47:07.339Z,2.9
2015-07-28T00:47:19.684Z,2.93
2015-07-28T00:47:32.028Z,2.96
2015-07-28T00:47:44.388Z,2.9
2015-07-28T00:47:56.731Z,2.91
2015-07-28T00:48:09.075Z,2.91
2015-07-28T00:48:21.452Z,2.95
2015-07-28T00:48:33.827Z,3.05
2015-07-28T00:48:46.202Z,2.93
2015-07-28T00:48:58.561Z,2.93
2015-07-28T00:49:10.921Z,2.93
2015-07-28T00:49:23.282Z,3.01
2015-07-28T00:49:35.657Z,2.95
2015-07-28T00:49:47.985Z,2.96
2015-07-28T00:50:00.329Z,2.98
2015-07-28T00:50:12.657Z,2.93
2015-07-28T00:50:25.002Z,3.01
2015-07-28T00:50:37.330Z,2.93
2015-07-28T00:50:49.689Z,3.03
2015-07-28T00:51:01.861Z,3.05
2015-07-28T00:51:14.205Z,3.05
2015-07-28T00:51:26.535Z,2.98
2015-07-28T00:51:38.910Z,2.95
2015-07-28T00:51:51.238Z,3.02
2015-07-28T00:52:03.582Z,2.96
2015-07-28T00:52:15.926Z,3.02
2015-07-28T00:52:28.257Z,2.93
2015-07-28T00:52:40.601Z,2.93
2015-07-28T00:52:52.944Z,2.93
2015-07-28T00:53:04.569Z,3.05
2015-07-28T00:53:16.913Z,2.96
2015-07-28T00:53:29.103Z,3.05
2015-07-28T00:53:41.446Z,3.02
2015-07-28T00:53:53.790Z,3.01
2015-07-28T00:54:06.150Z,2.99
2015-07-28T00:54:18.525Z,2.95
2015-07-28T00:54:30.901Z,3.05
2015-07-28T00:54:43.260Z,2.98
2015-07-28T00:54:55.635Z,3.02
2015-07-28T00:55:08.010Z,3.05
2015-07-28T00:55:20.369Z,2.98
2015-07-28T00:55:32.731Z,2.99
2015-07-28T00:55:45.059Z,3.02
2015-07-28T00:55:57.403Z,2.93
2015-07-28T00:56:09.746Z,3.03
2015-07-28T00:56:22.074Z,2.99
2015-07-28T00:56:34.421Z,2.91
2015-07-28T00:56:46.593Z,3.03
2015-07-28T00:56:58.937Z,2.96
2015-07-28T00:57:11.124Z,2.96
2015-07-28T00:57:23.484Z,2.95
2015-07-28T00:57:35.828Z,2.91
2015-07-28T00:57:48.157Z,2.95
2015-07-28T00:58:00.500Z,2.99
2015-07-28T00:58:12.860Z,2.99
2015-07-28T00:58:25.203Z,2.95
2015-07-28T00:58:37.534Z,2.96
2015-07-28T00:58:49.862Z,2.91
2015-07-28T00:59:02.221Z,2.95
2015-07-28T00:59:14.565Z,2.96
2015-07-28T00:59:26.909Z,2.93
2015-07-28T00:59:39.270Z,2.98
2015-07-28T00:59:51.629Z,2.96
2015-07-28T01:00:04.004Z,2.98
2015-07-28T01:00:16.379Z,2.93
2015-07-28T01:00:28.739Z,2.95
2015-07-28T01:00:41.100Z,2.99
2015-07-28T01:00:53.475Z,2.91
2015-07-28T01:01:05.834Z,2.88
2015-07-28T01:01:18.178Z,2.87
2015-07-28T01:01:30.506Z,2.93
2015-07-28T01:01:42.852Z,2.98
2015-07-28T01:01:55.196Z,2.98
2015-07-28T01:02:07.540Z,2.98
2015-07-28T01:02:19.868Z,2.96
2015-07-28T01:02:32.211Z,2.91
2015-07-28T01:02:43.838Z,2.98
2015-07-28T01:02:55.479Z,2.9
2015-07-28T01:03:07.823Z,2.98
2015-07-28T01:03:20.151Z,2.93
2015-07-28T01:03:32.495Z,2.96
2015-07-28T01:03:44.840Z,2.96
2015-07-28T01:03:57.184Z,2.98
2015-07-28T01:04:09.528Z,2.96
2015-07-28T01:04:21.856Z,2.9
2015-07-28T01:04:34.215Z,2.91
2015-07-28T01:04:46.561Z,2.98
2015-07-28T01:04:58.921Z,2.98
2015-07-28T01:05:11.264Z,2.96
2015-07-28T01:05:23.639Z,2.96
2015-07-28T01:05:36.014Z,2.96
2015-07-28T01:05:48.376Z,2.98
2015-07-28T01:06:00.751Z,2.88
2015-07-28T01:06:13.141Z,2.91
2015-07-28T01:06:25.501Z,2.9
2015-07-28T01:06:37.892Z,2.9
2015-07-28T01:06:50.220Z,2.96
2015-07-28T01:07:02.564Z,2.91
2015-07-28T01:07:14.892Z,2.9
2015-07-28T01:07:27.236Z,2.95
2015-07-28T01:07:39.567Z,2.9
2015-07-28T01:07:51.911Z,2.96
2015-07-28T01:08:04.239Z,2.93
2015-07-28T01:08:16.583Z,2.96
2015-07-28T01:08:29.192Z,3.01
2015-07-28T01:08:41.522Z,2.96
2015-07-28T01:08:53.866Z,2.96
2015-07-28T01:09:06.194Z,2.93
2015-07-28T01:09:18.538Z,2.85
2015-07-28T01:09:30.882Z,2.87
2015-07-28T01:09:43.212Z,2.91
2015-07-28T01:09:55.556Z,2.96
2015-07-28T01:10:07.884Z,2.93
2015-07-28T01:10:20.243Z,2.96
2015-07-28T01:10:32.587Z,2.95
2015-07-28T01:10:44.933Z,2.93
2015-07-28T01:10:57.292Z,2.96
2015-07-28T01:11:09.667Z,2.88
2015-07-28T01:11:22.026Z,2.91
2015-07-28T01:11:34.386Z,2.95
2015-07-28T01:11:46.763Z,2.88
2015-07-28T01:11:59.122Z,2.88
2015-07-28T01:12:11.513Z,2.96
2015-07-28T01:12:23.856Z,2.96
2015-07-28T01:12:36.185Z,2.96
2015-07-28T01:12:48.515Z,2.91
2015-07-28T01:13:00.843Z,2.9
2015-07-28T01:13:13.171Z,2.95
2015-07-28T01:13:25.765Z,2.91
2015-07-28T01:13:38.093Z,2.96
2015-07-28T01:13:50.422Z,2.98
2015-07-28T01:14:02.766Z,2.9
2015-07-28T01:14:15.109Z,2.9
2015-07-28T01:14:27.453Z,2.9
2015-07-28T01:14:39.781Z,2.96
2015-07-28T01:14:52.128Z,2.93
2015-07-28T01:15:04.487Z,2.91
2015-07-28T01:15:16.816Z,2.95
2015-07-28T01:15:29.175Z,2.98
2015-07-28T01:15:41.503Z,2.96
2015-07-28T01:15:53.848Z,2.98
2015-07-28T01:16:06.207Z,2.9
2015-07-28T01:16:18.551Z,2.95
2015-07-28T01:16:30.895Z,2.96
2015-07-28T01:16:43.285Z,2.91
2015-07-28T01:16:55.647Z,3.01
2015-07-28T01:17:08.022Z,2.93
2015-07-28T01:17:20.381Z,2.93
2015-07-28T01:17:32.740Z,2.9
2015-07-28T01:17:45.131Z,2.93
2015-07-28T01:17:57.492Z,2.95
2015-07-28T01:18:09.836Z,3.01
2015-07-28T01:18:22.180Z,3.03
2015-07-28T01:18:34.508Z,2.96
2015-07-28T01:18:46.852Z,2.93
2015-07-28T01:18:59.182Z,2.98
2015-07-28T01:19:11.526Z,2.93
2015-07-28T01:19:23.869Z,2.9
2015-07-28T01:19:36.213Z,2.96
2015-07-28T01:19:48.541Z,2.93
2015-07-28T01:20:00.903Z,2.91
2015-07-28T01:20:13.231Z,2.96
2015-07-28T01:20:25.418Z,3.02
2015-07-28T01:20:37.762Z,2.93
2015-07-28T01:20:50.106Z,2.91
2015-07-28T01:21:02.452Z,2.9
2015-07-28T01:21:14.780Z,2.93
2015-07-28T01:21:27.123Z,2.99
2015-07-28T01:21:39.452Z,2.91
2015-07-28T01:21:51.795Z,2.99
2015-07-28T01:22:03.438Z,2.91
2015-07-28T01:22:15.782Z,3.01
2015-07-28T01:22:28.157Z,2.98
2015-07-28T01:22:40.532Z,2.91
2015-07-28T01:22:52.907Z,2.95
2015-07-28T01:23:05.284Z,2.96
2015-07-28T01:23:17.643Z,2.96
2015-07-28T01:23:30.002Z,3.01
2015-07-28T01:23:42.346Z,2.96
2015-07-28T01:23:54.690Z,2.93
2015-07-28T01:24:07.020Z,3.01
2015-07-28T01:24:19.364Z,2.93
2015-07-28T01:24:31.692Z,2.95
2015-07-28T01:24:44.036Z,2.95
2015-07-28T01:24:56.379Z,2.98
2015-07-28T01:25:08.725Z,2.96
2015-07-28T01:25:21.069Z,2.98
2015-07-28T01:25:33.413Z,2.91
2015-07-28T01:25:45.756Z,2.96
2015-07-28T01:25:58.085Z,2.88
2015-07-28T01:26:10.415Z,2.95
2015-07-28T01:26:22.758Z,2.9
2015-07-28T01:26:35.087Z,2.93
2015-07-28T01:26:47.430Z,2.91
2015-07-28T01:26:59.776Z,2.96
2015-07-28T01:27:12.135Z,2.96
2015-07-28T01:27:24.479Z,2.91
2015-07-28T01:27:36.839Z,3.01
2015-07-28T01:27:49.182Z,2.84
2015-07-28T01:28:01.559Z,2.91
2015-07-28T01:28:13.934Z,2.88
2015-07-28T01:28:25.591Z,2.96
2015-07-28T01:28:37.794Z,2.95
2015-07-28T01:28:50.153Z,2.93
2015-07-28T01:29:02.530Z,2.9
2015-07-28T01:29:14.921Z,2.87
2015-07-28T01:29:27.249Z,2.91
2015-07-28T01:29:39.593Z,2.9
2015-07-28T01:29:51.921Z,2.91
2015-07-28T01:30:04.266Z,2.96
2015-07-28T01:30:16.595Z,2.96
2015-07-28T01:30:28.938Z,2.9
2015-07-28T01:30:41.282Z,2.91
2015-07-28T01:30:53.626Z,3.02
2015-07-28T01:31:05.972Z,2.96
2015-07-28T01:31:18.315Z,2.91
2015-07-28T01:31:30.659Z,2.93
2015-07-28T01:31:42.987Z,2.95
2015-07-28T01:31:55.331Z,2.88
2015-07-28T01:32:07.676Z,2.93
2015-07-28T01:32:20.004Z,2.96
2015-07-28T01:32:32.348Z,3.05
2015-07-28T01:32:44.676Z,3.02
2015-07-28T01:32:57.019Z,3.01
2015-07-28T01:33:09.382Z,2.96
2015-07-28T01:33:21.726Z,2.91
2015-07-28T01:33:33.382Z,2.93
2015-07-28T01:33:45.741Z,2.95
2015-07-28T01:33:58.116Z,2.93
2015-07-28T01:34:10.478Z,2.91
2015-07-28T01:34:22.837Z,2.93
2015-07-28T01:34:35.212Z,2.96
2015-07-28T01:34:47.571Z,2.88
2015-07-28T01:34:59.931Z,2.96
2015-07-28T01:35:11.557Z,2.9
2015-07-28T01:35:23.885Z,2.96
2015-07-28T01:35:36.213Z,2.93
2015-07-28T01:35:48.557Z,2.91
2015-07-28T01:36:00.885Z,2.93
2015-07-28T01:36:13.231Z,2.96
2015-07-28T01:36:25.559Z,2.93
2015-07-28T01:36:37.902Z,2.99
2015-07-28T01:36:50.246Z,2.9
2015-07-28T01:37:02.590Z,2.91
2015-07-28T01:37:14.217Z,2.91
2015-07-28T01:37:26.561Z,2.98
2015-07-28T01:37:38.889Z,2.91
2015-07-28T01:37:51.217Z,2.96
2015-07-28T01:38:03.561Z,2.96
2015-07-28T01:38:15.188Z,2.91
2015-07-28T01:38:27.531Z,2.99
2015-07-28T01:38:39.891Z,2.9
2015-07-28T01:38:52.235Z,2.96
2015-07-28T01:39:04.578Z,2.93
2015-07-28T01:39:16.940Z,2.93
2015-07-28T01:39:29.315Z,2.98
2015-07-28T01:39:41.674Z,2.93
2015-07-28T01:39:54.033Z,2.85
2015-07-28T01:40:06.408Z,2.95
2015-07-28T01:40:18.786Z,2.95
2015-07-28T01:40:31.146Z,2.93
2015-07-28T01:40:43.505Z,2.98
2015-07-28T01:40:55.849Z,2.91
2015-07-28T01:41:08.177Z,2.99
2015-07-28T01:41:20.506Z,2.96
2015-07-28T01:41:32.850Z,2.99
2015-07-28T01:41:45.209Z,2.96
2015-07-28T01:41:57.537Z,2.9
2015-07-28T01:42:09.881Z,2.96
2015-07-28T01:42:22.211Z,2.98
2015-07-28T01:42:34.539Z,2.91
2015-07-28T01:42:46.883Z,2.88
2015-07-28T01:42:59.211Z,2.95
2015-07-28T01:43:11.539Z,2.99
2015-07-28T01:43:23.885Z,2.96
2015-07-28T01:43:36.229Z,2.91
2015-07-28T01:43:48.573Z,2.93
2015-07-28T01:44:01.166Z,3.01
2015-07-28T01:44:13.510Z,2.96
2015-07-28T01:44:25.872Z,2.98
2015-07-28T01:44:38.215Z,3.01
2015-07-28T01:44:50.559Z,2.98
2015-07-28T01:45:02.465Z,2.93
2015-07-28T01:45:14.668Z,2.98
2015-07-28T01:45:27.030Z,2.98
2015-07-28T01:45:39.389Z,2.99
2015-07-28T01:45:51.764Z,2.95
2015-07-28T01:46:04.124Z,3.01
2015-07-28T01:46:16.483Z,2.91
2015-07-28T01:46:28.844Z,2.88
2015-07-28T01:46:41.219Z,2.98
2015-07-28T01:46:53.547Z,2.99
2015-07-28T01:47:05.907Z,2.98
2015-07-28T01:47:18.235Z,2.95
2015-07-28T01:47:30.581Z,2.98
2015-07-28T01:47:42.909Z,2.9
2015-07-28T01:47:55.253Z,2.91
2015-07-28T01:48:07.581Z,2.95
2015-07-28T01:48:19.924Z,2.96
2015-07-28T01:48:32.270Z,2.98
2015-07-28T01:48:44.614Z,2.96
2015-07-28T01:48:56.942Z,2.95
2015-07-28T01:49:09.286Z,2.93
2015-07-28T01:49:21.645Z,2.98
2015-07-28T01:49:33.975Z,2.96
2015-07-28T01:49:46.319Z,2.93
2015-07-28T01:49:58.663Z,2.91
2015-07-28T01:50:10.991Z,2.95
2015-07-28T01:50:23.350Z,2.98
2015-07-28T01:50:35.696Z,2.99
2015-07-28T01:50:48.055Z,2.87
2015-07-28T01:51:00.446Z,2.93
2015-07-28T01:51:12.805Z,2.9
2015-07-28T01:51:25.165Z,2.9
2015-07-28T01:51:37.542Z,2.98
2015-07-28T01:51:49.917Z,2.95
2015-07-28T01:52:02.276Z,2.95
2015-07-28T01:52:14.636Z,2.91
2015-07-28T01:52:26.979Z,2.99
2015-07-28T01:52:38.606Z,2.95
2015-07-28T01:52:50.934Z,2.9
2015-07-28T01:53:03.278Z,2.93
2015-07-28T01:53:15.622Z,2.93
2015-07-28T01:53:27.966Z,2.99
2015-07-28T01:53:40.296Z,2.96
2015-07-28T01:53:52.640Z,2.96
2015-07-28T01:54:04.983Z,2.88
2015-07-28T01:54:17.327Z,2.96
2015-07-28T01:54:29.655Z,2.91
2015-07-28T01:54:42.001Z,2.96
2015-07-28T01:54:54.329Z,2.9
2015-07-28T01:55:06.673Z,2.99
2015-07-28T01:55:19.001Z,2.95
2015-07-28T01:55:31.345Z,2.88
2015-07-28T01:55:43.675Z,2.9
2015-07-28T01:55:56.034Z,2.91
2015-07-28T01:56:08.378Z,2.93
2015-07-28T01:56:20.722Z,2.95
2015-07-28T01:56:33.081Z,2.95
2015-07-28T01:56:45.474Z,2.98
2015-07-28T01:56:57.677Z,2.96
2015-07-28T01:57:10.036Z,2.95
2015-07-28T01:57:22.411Z,2.95
2015-07-28T01:57:34.771Z,2.95
2015-07-28T01:57:47.132Z,2.91
2015-07-28T01:57:59.523Z,2.95
2015-07-28T01:58:11.866Z,2.85
2015-07-28T01:58:24.194Z,2.99
2015-07-28T01:58:36.539Z,2.91
2015-07-28T01:58:48.867Z,2.88
2015-07-28T01:59:01.227Z,2.95
2015-07-28T01:59:13.555Z,2.95
2015-07-28T01:59:25.899Z,2.96
2015-07-28T01:59:38.245Z,3.01
2015-07-28T01:59:50.589Z,2.98
2015-07-28T02:00:02.933Z,2.95
2015-07-28T02:00:15.277Z,2.88
2015-07-28T02:00:27.605Z,2.96
2015-07-28T02:00:39.950Z,2.98
2015-07-28T02:00:52.294Z,2.95
2015-07-28T02:01:04.622Z,2.98
2015-07-28T02:01:16.966Z,2.96
2015-07-28T02:01:29.294Z,2.96
2015-07-28T02:01:41.639Z,2.98
2015-07-28T02:01:53.983Z,2.93
2015-07-28T02:02:06.326Z,2.98
2015-07-28T02:02:18.686Z,2.95
2015-07-28T02:02:31.045Z,2.9
2015-07-28T02:02:43.407Z,2.91
2015-07-28T02:02:55.782Z,2.96
2015-07-28T02:03:08.157Z,2.9
2015-07-28T02:03:20.532Z,2.9
2015-07-28T02:03:32.891Z,2.96
2015-07-28T02:03:45.237Z,2.98
2015-07-28T02:03:56.877Z,2.91
2015-07-28T02:04:09.205Z,2.93
2015-07-28T02:04:21.549Z,2.91
2015-07-28T02:04:33.877Z,2.95
2015-07-28T02:04:46.224Z,2.93
2015-07-28T02:04:58.552Z,2.98
2015-07-28T02:05:10.896Z,2.95
2015-07-28T02:05:23.224Z,2.98
2015-07-28T02:05:35.583Z,2.96
2015-07-28T02:05:47.913Z,2.91
2015-07-28T02:06:00.256Z,2.96
2015-07-28T02:06:12.600Z,2.91
2015-07-28T02:06:24.928Z,2.95
2015-07-28T02:06:37.272Z,2.91
2015-07-28T02:06:49.602Z,2.93
2015-07-28T02:07:01.946Z,2.95
2015-07-28T02:07:14.274Z,2.96
2015-07-28T02:07:26.633Z,2.95
2015-07-28T02:07:38.977Z,2.98
2015-07-28T02:07:51.307Z,2.87
2015-07-28T02:08:03.682Z,2.95
2015-07-28T02:08:16.057Z,2.93
2015-07-28T02:08:28.417Z,2.85
2015-07-28T02:08:40.792Z,2.95
2015-07-28T02:08:53.154Z,2.87
2015-07-28T02:09:05.513Z,2.93
2015-07-28T02:09:17.888Z,2.91
2015-07-28T02:09:30.232Z,2.99
2015-07-28T02:09:42.560Z,2.95
2015-07-28T02:09:54.906Z,2.9
2015-07-28T02:10:07.250Z,2.91
2015-07-28T02:10:19.593Z,2.88
2015-07-28T02:10:31.922Z,2.91
2015-07-28T02:10:44.265Z,2.93
2015-07-28T02:10:56.595Z,2.88
2015-07-28T02:11:08.955Z,2.88
2015-07-28T02:11:21.299Z,2.88
2015-07-28T02:11:33.627Z,2.91
2015-07-28T02:11:45.955Z,2.91
2015-07-28T02:11:58.300Z,2.84
2015-07-28T02:12:10.628Z,2.85
2015-07-28T02:12:22.971Z,2.88
2015-07-28T02:12:35.315Z,2.93
2015-07-28T02:12:47.659Z,2.95
2015-07-28T02:13:00.005Z,2.91
2015-07-28T02:13:12.395Z,2.83
2015-07-28T02:13:24.739Z,2.84
2015-07-28T02:13:37.098Z,2.88
2015-07-28T02:13:49.489Z,2.98
2015-07-28T02:14:01.851Z,2.87
2015-07-28T02:14:14.226Z,2.93
2015-07-28T02:14:26.586Z,2.83
2015-07-28T02:14:38.945Z,2.88
2015-07-28T02:14:51.320Z,2.96
2015-07-28T02:15:03.681Z,2.9
2015-07-28T02:15:16.009Z,2.85
2015-07-28T02:15:28.352Z,2.83
2015-07-28T02:15:40.696Z,2.98
2015-07-28T02:15:53.040Z,2.91
2015-07-28T02:16:05.386Z,2.91
2015-07-28T02:16:17.714Z,2.95
2015-07-28T02:16:30.058Z,2.88
2015-07-28T02:16:42.386Z,2.93
2015-07-28T02:16:54.729Z,2.88
2015-07-28T02:17:07.075Z,2.88
2015-07-28T02:17:19.403Z,2.88
2015-07-28T02:17:31.747Z,2.87
2015-07-28T02:17:44.075Z,2.91
2015-07-28T02:17:56.685Z,2.88
2015-07-28T02:18:09.030Z,2.96
2015-07-28T02:18:21.374Z,2.85
2015-07-28T02:18:33.718Z,2.93
2015-07-28T02:18:46.077Z,2.91
2015-07-28T02:18:58.421Z,2.91
2015-07-28T02:19:10.782Z,2.93
2015-07-28T02:19:23.173Z,2.88
2015-07-28T02:19:35.532Z,2.88
2015-07-28T02:19:47.907Z,2.91
2015-07-28T02:20:00.267Z,2.91
2015-07-28T02:20:12.628Z,2.87
2015-07-28T02:20:24.972Z,2.84
2015-07-28T02:20:37.316Z,2.87
2015-07-28T02:20:49.644Z,2.87
2015-07-28T02:21:01.269Z,2.96
2015-07-28T02:21:13.614Z,2.84
2015-07-28T02:21:25.818Z,2.84
2015-07-28T02:21:38.146Z,2.88
2015-07-28T02:21:50.474Z,2.91
2015-07-28T02:22:02.818Z,2.84
2015-07-28T02:22:15.163Z,2.83
2015-07-28T02:22:27.507Z,2.88
2015-07-28T02:22:39.835Z,2.85
2015-07-28T02:22:51.460Z,2.84
2015-07-28T02:23:03.804Z,2.9
2015-07-28T02:23:16.150Z,2.84
2015-07-28T02:23:28.509Z,2.96
2015-07-28T02:23:40.837Z,2.88
2015-07-28T02:23:53.181Z,2.87
2015-07-28T02:24:05.540Z,2.85
2015-07-28T02:24:17.886Z,2.87
2015-07-28T02:24:30.245Z,2.95
2015-07-28T02:24:42.620Z,2.81
2015-07-28T02:24:54.980Z,2.88
2015-07-28T02:25:07.355Z,2.87
2015-07-28T02:25:19.732Z,2.93
2015-07-28T02:25:32.107Z,2.87
2015-07-28T02:25:44.497Z,2.88
2015-07-28T02:25:56.826Z,2.87
2015-07-28T02:26:09.169Z,2.87
2015-07-28T02:26:21.515Z,2.85
2015-07-28T02:26:33.843Z,2.84
2015-07-28T02:26:46.187Z,2.85
2015-07-28T02:26:58.515Z,2.88
2015-07-28T02:27:10.703Z,2.87
2015-07-28T02:27:23.048Z,2.87
2015-07-28T02:27:34.673Z,2.87
2015-07-28T02:27:47.001Z,2.84
2015-07-28T02:27:59.345Z,2.87
2015-07-28T02:28:11.673Z,2.78
2015-07-28T02:28:24.019Z,2.87
2015-07-28T02:28:36.378Z,2.83
2015-07-28T02:28:48.722Z,2.81
2015-07-28T02:29:01.066Z,2.91
2015-07-28T02:29:13.285Z,2.83
2015-07-28T02:29:25.646Z,2.85
2015-07-28T02:29:37.302Z,2.85
2015-07-28T02:29:49.662Z,2.88
2015-07-28T02:30:02.021Z,2.93
2015-07-28T02:30:14.380Z,2.87
2015-07-28T02:30:26.756Z,2.95
2015-07-28T02:30:39.116Z,2.85
2015-07-28T02:30:51.444Z,2.88
2015-07-28T02:31:03.772Z,2.83
2015-07-28T02:31:16.116Z,2.87
2015-07-28T02:31:28.447Z,2.81
2015-07-28T02:31:40.791Z,2.85
2015-07-28T02:31:53.134Z,2.88
2015-07-28T02:32:05.463Z,2.9
2015-07-28T02:32:17.806Z,2.88
2015-07-28T02:32:30.167Z,2.91
2015-07-28T02:32:43.042Z,2.9
2015-07-28T02:32:55.370Z,2.88
2015-07-28T02:33:07.714Z,2.83
2015-07-28T02:33:20.059Z,2.87
2015-07-28T02:33:32.403Z,2.8
2015-07-28T02:33:44.731Z,2.84
2015-07-28T02:33:57.059Z,2.87
2015-07-28T02:34:09.419Z,2.91
2015-07-28T02:34:21.764Z,2.91
2015-07-28T02:34:34.108Z,2.85
2015-07-28T02:34:46.468Z,2.81
2015-07-28T02:34:58.827Z,2.83
2015-07-28T02:35:11.186Z,2.81
2015-07-28T02:35:23.563Z,2.85
2015-07-28T02:35:35.923Z,2.85
2015-07-28T02:35:48.282Z,2.83
2015-07-28T02:36:00.641Z,2.88
2015-07-28T02:36:13.001Z,2.9
2015-07-28T02:36:25.190Z,2.9
2015-07-28T02:36:37.534Z,2.88
2015-07-28T02:36:50.128Z,2.88
2015-07-28T02:37:02.456Z,2.88
2015-07-28T02:37:14.800Z,2.87
2015-07-28T02:37:27.145Z,2.9
2015-07-28T02:37:39.474Z,2.9
2015-07-28T02:37:51.817Z,2.88
2015-07-28T02:38:04.145Z,2.87
2015-07-28T02:38:16.505Z,2.87
2015-07-28T02:38:28.835Z,2.83
2015-07-28T02:38:41.179Z,2.87
2015-07-28T02:38:53.522Z,2.88
2015-07-28T02:39:05.710Z,2.9
2015-07-28T02:39:18.054Z,2.84
2015-07-28T02:39:30.384Z,2.84
2015-07-28T02:39:42.728Z,2.91
2015-07-28T02:39:55.087Z,2.87
2015-07-28T02:40:07.431Z,2.81
2015-07-28T02:40:19.774Z,2.83
2015-07-28T02:40:32.136Z,2.91
2015-07-28T02:40:44.511Z,2.8
2015-07-28T02:40:56.870Z,2.81
2015-07-28T02:41:09.245Z,2.84
2015-07-28T02:41:21.605Z,2.91
2015-07-28T02:41:33.982Z,2.84
2015-07-28T02:41:46.341Z,2.87
2015-07-28T02:41:58.716Z,2.87
2015-07-28T02:42:11.060Z,2.81
2015-07-28T02:42:23.388Z,2.81
2015-07-28T02:42:35.734Z,2.77
2015-07-28T02:42:48.062Z,2.81
2015-07-28T02:43:00.421Z,2.9
2015-07-28T02:43:12.749Z,2.85
2015-07-28T02:43:25.077Z,2.81
2015-07-28T02:43:36.720Z,2.85
2015-07-28T02:43:49.064Z,2.8
2015-07-28T02:44:01.392Z,2.8
2015-07-28T02:44:13.736Z,2.83
2015-07-28T02:44:26.079Z,2.84